sensor_id;sensor_type;location;lat;lon;timestamp;temperature;humidity
54622;DHT22;40521;53.146;6.556;2022-09-30T00:02:08;7.10;99.90
54622;DHT22;40521;53.146;6.556;2022-09-30T00:04:38;6.90;99.90
54622;DHT22;40521;53.146;6.556;2022-09-30T00:07:10;6.90;99.90
54622;DHT22;40521;53.146;6.556;2022-09-30T00:09:54;6.90;99.90
54622;DHT22;40521;53.146;6.556;2022-09-30T00:12:23;7.60;99.90
54622;DHT22;40521;53.146;6.556;2022-09-30T00:14:54;6.90;99.90
54622;DHT22;40521;53.146;6.556;2022-09-30T00:17:40;8.50;99.90
54622;DHT22;40521;53.146;6.556;2022-09-30T00:20:16;8.60;99.90
54622;DHT22;40521;53.146;6.556;2022-09-30T00:22:55;7.20;99.90
54622;DHT22;40521;53.146;6.556;2022-09-30T00:25:33;6.50;99.90
54622;DHT22;40521;53.146;6.556;2022-09-30T00:28:04;6.90;99.90
54622;DHT22;40521;53.146;6.556;2022-09-30T00:30:41;7.80;99.90
54622;DHT22;40521;53.146;6.556;2022-09-30T00:33:09;7.10;99.90
54622;DHT22;40521;53.146;6.556;2022-09-30T00:38:19;7.00;99.90
54622;DHT22;40521;53.146;6.556;2022-09-30T00:41:01;7.40;99.90
54622;DHT22;40521;53.146;6.556;2022-09-30T00:46:44;7.00;99.90
54622;DHT22;40521;53.146;6.556;2022-09-30T00:49:15;7.10;99.90
54622;DHT22;40521;53.146;6.556;2022-09-30T00:51:57;5.90;99.90
54622;DHT22;40521;53.146;6.556;2022-09-30T00:54:28;7.50;99.90
54622;DHT22;40521;53.146;6.556;2022-09-30T00:57:10;7.30;99.90
54622;DHT22;40521;53.146;6.556;2022-09-30T01:00:05;8.70;99.90
54622;DHT22;40521;53.146;6.556;2022-09-30T01:02:57;7.90;99.90
54622;DHT22;40521;53.146;6.556;2022-09-30T01:05:28;6.10;99.90
54622;DHT22;40521;53.146;6.556;2022-09-30T01:08:06;6.80;99.90
54622;DHT22;40521;53.146;6.556;2022-09-30T01:10:54;7.00;99.90
54622;DHT22;40521;53.146;6.556;2022-09-30T01:13:33;6.70;99.90
54622;DHT22;40521;53.146;6.556;2022-09-30T01:38:14;6.70;99.90
54622;DHT22;40521;53.146;6.556;2022-09-30T01:44:07;6.50;99.90
54622;DHT22;40521;53.146;6.556;2022-09-30T01:46:39;6.60;99.90
54622;DHT22;40521;53.146;6.556;2022-09-30T01:51:44;6.70;99.90
54622;DHT22;40521;53.146;6.556;2022-09-30T01:54:31;8.30;99.90
54622;DHT22;40521;53.146;6.556;2022-09-30T02:02:54;7.70;99.90
54622;DHT22;40521;53.146;6.556;2022-09-30T02:05:35;5.60;99.90
54622;DHT22;40521;53.146;6.556;2022-09-30T02:13:51;6.40;99.90
54622;DHT22;40521;53.146;6.556;2022-09-30T02:16:52;6.10;99.90
54622;DHT22;40521;53.146;6.556;2022-09-30T02:21:56;7.90;99.90
54622;DHT22;40521;53.146;6.556;2022-09-30T02:24:28;7.60;99.90
54622;DHT22;40521;53.146;6.556;2022-09-30T02:30:05;6.20;99.90
54622;DHT22;40521;53.146;6.556;2022-09-30T02:32:41;4.40;99.90
54622;DHT22;40521;53.146;6.556;2022-09-30T02:35:16;6.00;99.90
54622;DHT22;40521;53.146;6.556;2022-09-30T02:37:51;6.20;99.90
54622;DHT22;40521;53.146;6.556;2022-09-30T02:40:39;4.90;99.90
54622;DHT22;40521;53.146;6.556;2022-09-30T02:43:25;7.90;99.90
54622;DHT22;40521;53.146;6.556;2022-09-30T02:48:45;6.20;99.90
54622;DHT22;40521;53.146;6.556;2022-09-30T02:54:29;5.80;99.90
54622;DHT22;40521;53.146;6.556;2022-09-30T02:57:15;6.30;99.90
54622;DHT22;40521;53.146;6.556;2022-09-30T02:59:50;6.00;99.90
54622;DHT22;40521;53.146;6.556;2022-09-30T03:02:25;7.00;99.90
54622;DHT22;40521;53.146;6.556;2022-09-30T03:04:58;6.20;99.90
54622;DHT22;40521;53.146;6.556;2022-09-30T03:07:43;6.00;99.90
54622;DHT22;40521;53.146;6.556;2022-09-30T03:10:19;5.70;99.90
54622;DHT22;40521;53.146;6.556;2022-09-30T03:23:45;7.10;99.90
54622;DHT22;40521;53.146;6.556;2022-09-30T03:37:48;5.70;99.90
54622;DHT22;40521;53.146;6.556;2022-09-30T03:46:29;5.60;99.90
54622;DHT22;40521;53.146;6.556;2022-09-30T03:49:17;4.80;99.90
54622;DHT22;40521;53.146;6.556;2022-09-30T03:51:51;6.20;99.90
54622;DHT22;40521;53.146;6.556;2022-09-30T03:54:18;5.60;99.90
54622;DHT22;40521;53.146;6.556;2022-09-30T03:57:11;7.40;99.90
54622;DHT22;40521;53.146;6.556;2022-09-30T03:59:45;7.50;99.90
54622;DHT22;40521;53.146;6.556;2022-09-30T04:02:14;5.60;99.90
54622;DHT22;40521;53.146;6.556;2022-09-30T04:05:01;5.70;99.90
54622;DHT22;40521;53.146;6.556;2022-09-30T04:07:37;4.90;99.90
54622;DHT22;40521;53.146;6.556;2022-09-30T04:10:23;7.40;99.90
54622;DHT22;40521;53.146;6.556;2022-09-30T04:12:54;6.00;99.90
54622;DHT22;40521;53.146;6.556;2022-09-30T04:15:43;5.40;99.90
54622;DHT22;40521;53.146;6.556;2022-09-30T04:18:21;6.80;99.90
54622;DHT22;40521;53.146;6.556;2022-09-30T04:20:54;7.60;99.90
54622;DHT22;40521;53.146;6.556;2022-09-30T04:23:22;5.30;99.90
54622;DHT22;40521;53.146;6.556;2022-09-30T04:26:11;5.20;99.90
54622;DHT22;40521;53.146;6.556;2022-09-30T04:31:39;5.10;99.90
54622;DHT22;40521;53.146;6.556;2022-09-30T04:34:15;6.90;99.90
54622;DHT22;40521;53.146;6.556;2022-09-30T04:39:31;4.60;99.90
54622;DHT22;40521;53.146;6.556;2022-09-30T04:42:02;3.90;99.90
54622;DHT22;40521;53.146;6.556;2022-09-30T04:44:46;4.80;99.90
54622;DHT22;40521;53.146;6.556;2022-09-30T04:47:16;7.10;99.90
54622;DHT22;40521;53.146;6.556;2022-09-30T04:49:44;4.80;99.90
54622;DHT22;40521;53.146;6.556;2022-09-30T04:52:15;6.40;99.90
54622;DHT22;40521;53.146;6.556;2022-09-30T04:54:51;5.80;99.90
54622;DHT22;40521;53.146;6.556;2022-09-30T04:57:17;4.20;99.90
54622;DHT22;40521;53.146;6.556;2022-09-30T04:59:42;4.70;99.90
54622;DHT22;40521;53.146;6.556;2022-09-30T05:02:28;6.90;99.90
54622;DHT22;40521;53.146;6.556;2022-09-30T05:04:56;7.10;99.90
54622;DHT22;40521;53.146;6.556;2022-09-30T05:07:35;3.50;99.90
54622;DHT22;40521;53.146;6.556;2022-09-30T05:10:00;5.20;99.90
54622;DHT22;40521;53.146;6.556;2022-09-30T05:12:42;5.00;99.90
54622;DHT22;40521;53.146;6.556;2022-09-30T05:15:15;4.40;99.90
54622;DHT22;40521;53.146;6.556;2022-09-30T05:17:58;5.20;99.90
54622;DHT22;40521;53.146;6.556;2022-09-30T05:20:28;6.20;99.90
54622;DHT22;40521;53.146;6.556;2022-09-30T05:23:23;4.70;99.90
54622;DHT22;40521;53.146;6.556;2022-09-30T05:25:52;5.00;99.90
54622;DHT22;40521;53.146;6.556;2022-09-30T05:31:20;6.50;99.90
54622;DHT22;40521;53.146;6.556;2022-09-30T05:34:12;4.60;99.90
54622;DHT22;40521;53.146;6.556;2022-09-30T05:36:41;3.60;99.90
54622;DHT22;40521;53.146;6.556;2022-09-30T05:39:16;5.70;99.90
54622;DHT22;40521;53.146;6.556;2022-09-30T05:41:49;3.60;99.90
54622;DHT22;40521;53.146;6.556;2022-09-30T05:44:23;6.20;99.90
54622;DHT22;40521;53.146;6.556;2022-09-30T05:47:06;7.10;99.90
54622;DHT22;40521;53.146;6.556;2022-09-30T05:55:44;5.10;99.90
54622;DHT22;40521;53.146;6.556;2022-09-30T06:01:18;3.90;99.90
54622;DHT22;40521;53.146;6.556;2022-09-30T06:03:58;3.80;99.90
54622;DHT22;40521;53.146;6.556;2022-09-30T06:06:24;6.60;99.90
54622;DHT22;40521;53.146;6.556;2022-09-30T06:12:09;5.00;99.90
54622;DHT22;40521;53.146;6.556;2022-09-30T06:27:05;4.80;99.90
54622;DHT22;40521;53.146;6.556;2022-09-30T06:29:52;4.20;99.90
54622;DHT22;40521;53.146;6.556;2022-09-30T06:35:47;5.30;99.90
54622;DHT22;40521;53.146;6.556;2022-09-30T06:38:30;5.20;99.90
54622;DHT22;40521;53.146;6.556;2022-09-30T06:41:09;5.30;99.90
54622;DHT22;40521;53.146;6.556;2022-09-30T06:43:59;4.90;99.90
54622;DHT22;40521;53.146;6.556;2022-09-30T06:46:48;5.50;99.90
54622;DHT22;40521;53.146;6.556;2022-09-30T06:49:49;7.10;99.90
54622;DHT22;40521;53.146;6.556;2022-09-30T06:52:39;3.80;99.90
54622;DHT22;40521;53.146;6.556;2022-09-30T06:55:10;6.80;99.90
54622;DHT22;40521;53.146;6.556;2022-09-30T06:57:59;6.90;99.90
54622;DHT22;40521;53.146;6.556;2022-09-30T07:00:25;5.80;99.90
54622;DHT22;40521;53.146;6.556;2022-09-30T07:02:52;7.70;99.90
54622;DHT22;40521;53.146;6.556;2022-09-30T07:05:23;5.90;99.90
54622;DHT22;40521;53.146;6.556;2022-09-30T07:08:01;6.50;99.90
54622;DHT22;40521;53.146;6.556;2022-09-30T07:10:47;6.00;99.90
54622;DHT22;40521;53.146;6.556;2022-09-30T07:22:57;5.70;99.90
54622;DHT22;40521;53.146;6.556;2022-09-30T07:28:43;4.90;99.90
54622;DHT22;40521;53.146;6.556;2022-09-30T07:31:13;6.30;99.90
54622;DHT22;40521;53.146;6.556;2022-09-30T07:36:45;6.30;99.90
54622;DHT22;40521;53.146;6.556;2022-09-30T07:39:13;6.80;99.90
54622;DHT22;40521;53.146;6.556;2022-09-30T07:41:57;8.20;99.90
54622;DHT22;40521;53.146;6.556;2022-09-30T07:44:53;7.00;99.90
54622;DHT22;40521;53.146;6.556;2022-09-30T07:47:21;8.60;99.90
54622;DHT22;40521;53.146;6.556;2022-09-30T07:50:10;7.30;99.90
54622;DHT22;40521;53.146;6.556;2022-09-30T07:52:55;7.10;99.90
54622;DHT22;40521;53.146;6.556;2022-09-30T07:55:41;5.90;99.90
54622;DHT22;40521;53.146;6.556;2022-09-30T07:58:45;7.40;99.90
54622;DHT22;40521;53.146;6.556;2022-09-30T08:01:27;7.50;99.90
54622;DHT22;40521;53.146;6.556;2022-09-30T08:03:54;8.30;99.90
54622;DHT22;40521;53.146;6.556;2022-09-30T08:06:37;9.10;99.90
54622;DHT22;40521;53.146;6.556;2022-09-30T08:09:43;8.70;99.90
54622;DHT22;40521;53.146;6.556;2022-09-30T08:12:11;7.90;99.90
54622;DHT22;40521;53.146;6.556;2022-09-30T08:15:03;8.60;99.90
54622;DHT22;40521;53.146;6.556;2022-09-30T08:17:46;9.00;99.90
54622;DHT22;40521;53.146;6.556;2022-09-30T08:20:34;8.10;99.90
54622;DHT22;40521;53.146;6.556;2022-09-30T08:26:04;8.20;99.90
54622;DHT22;40521;53.146;6.556;2022-09-30T08:28:56;8.50;99.90
54622;DHT22;40521;53.146;6.556;2022-09-30T08:31:32;8.60;99.90
54622;DHT22;40521;53.146;6.556;2022-09-30T08:34:20;8.00;99.90
54622;DHT22;40521;53.146;6.556;2022-09-30T08:40:23;8.90;99.90
54622;DHT22;40521;53.146;6.556;2022-09-30T09:01:44;9.70;99.90
54622;DHT22;40521;53.146;6.556;2022-09-30T09:11:18;10.10;99.90
54622;DHT22;40521;53.146;6.556;2022-09-30T09:14:01;10.20;99.90
54622;DHT22;40521;53.146;6.556;2022-09-30T09:16:31;10.30;99.90
54622;DHT22;40521;53.146;6.556;2022-09-30T09:19:05;10.30;99.90
54622;DHT22;40521;53.146;6.556;2022-09-30T09:21:35;10.40;99.90
54622;DHT22;40521;53.146;6.556;2022-09-30T09:24:03;10.50;99.90
54622;DHT22;40521;53.146;6.556;2022-09-30T09:26:33;10.60;99.90
54622;DHT22;40521;53.146;6.556;2022-09-30T09:31:44;10.80;99.90
54622;DHT22;40521;53.146;6.556;2022-09-30T09:34:10;10.70;99.90
54622;DHT22;40521;53.146;6.556;2022-09-30T09:46:53;10.60;99.90
54622;DHT22;40521;53.146;6.556;2022-09-30T09:49:27;10.60;99.90
54622;DHT22;40521;53.146;6.556;2022-09-30T09:54:21;10.80;99.90
54622;DHT22;40521;53.146;6.556;2022-09-30T09:56:49;10.90;99.90
54622;DHT22;40521;53.146;6.556;2022-09-30T09:59:17;11.00;99.90
54622;DHT22;40521;53.146;6.556;2022-09-30T10:01:44;11.10;99.90
54622;DHT22;40521;53.146;6.556;2022-09-30T10:04:12;11.20;99.90
54622;DHT22;40521;53.146;6.556;2022-09-30T10:06:44;11.40;99.90
54622;DHT22;40521;53.146;6.556;2022-09-30T10:09:20;11.50;99.90
54622;DHT22;40521;53.146;6.556;2022-09-30T10:11:50;11.70;99.90
54622;DHT22;40521;53.146;6.556;2022-09-30T10:14:17;11.10;99.90
54622;DHT22;40521;53.146;6.556;2022-09-30T10:16:44;12.00;99.90
54622;DHT22;40521;53.146;6.556;2022-09-30T10:21:45;12.30;99.90
54622;DHT22;40521;53.146;6.556;2022-09-30T10:24:18;12.40;99.90
54622;DHT22;40521;53.146;6.556;2022-09-30T10:26:44;12.60;99.90
54622;DHT22;40521;53.146;6.556;2022-09-30T10:29:22;12.60;99.90
54622;DHT22;40521;53.146;6.556;2022-09-30T10:31:49;12.70;99.90
54622;DHT22;40521;53.146;6.556;2022-09-30T10:37:00;13.00;99.90
54622;DHT22;40521;53.146;6.556;2022-09-30T10:39:27;13.10;99.90
54622;DHT22;40521;53.146;6.556;2022-09-30T10:42:01;13.30;99.90
54622;DHT22;40521;53.146;6.556;2022-09-30T10:44:30;13.30;99.90
54622;DHT22;40521;53.146;6.556;2022-09-30T10:47:02;13.40;99.90
54622;DHT22;40521;53.146;6.556;2022-09-30T10:51:56;13.60;99.90
54622;DHT22;40521;53.146;6.556;2022-09-30T10:57:04;13.90;99.90
54622;DHT22;40521;53.146;6.556;2022-09-30T10:59:31;14.00;99.90
54622;DHT22;40521;53.146;6.556;2022-09-30T11:01:59;14.10;99.90
54622;DHT22;40521;53.146;6.556;2022-09-30T11:04:36;14.20;99.90
54622;DHT22;40521;53.146;6.556;2022-09-30T11:07:08;14.30;99.90
54622;DHT22;40521;53.146;6.556;2022-09-30T11:09:37;14.50;99.90
54622;DHT22;40521;53.146;6.556;2022-09-30T11:12:10;14.60;99.90
54622;DHT22;40521;53.146;6.556;2022-09-30T11:14:41;14.60;99.90
54622;DHT22;40521;53.146;6.556;2022-09-30T11:24:53;14.60;99.90
54622;DHT22;40521;53.146;6.556;2022-09-30T11:32:45;14.90;99.90
54622;DHT22;40521;53.146;6.556;2022-09-30T11:38:08;14.50;99.90
54622;DHT22;40521;53.146;6.556;2022-09-30T11:43:19;14.20;99.90
54622;DHT22;40521;53.146;6.556;2022-09-30T11:58:36;14.80;99.90
54622;DHT22;40521;53.146;6.556;2022-09-30T12:01:08;15.00;99.90
54622;DHT22;40521;53.146;6.556;2022-09-30T12:03:41;15.20;99.90
54622;DHT22;40521;53.146;6.556;2022-09-30T12:06:17;15.10;99.90
54622;DHT22;40521;53.146;6.556;2022-09-30T12:08:50;15.00;99.90
54622;DHT22;40521;53.146;6.556;2022-09-30T12:11:21;14.90;99.90
54622;DHT22;40521;53.146;6.556;2022-09-30T12:13:51;15.00;99.90
54622;DHT22;40521;53.146;6.556;2022-09-30T12:16:20;15.00;99.90
54622;DHT22;40521;53.146;6.556;2022-09-30T12:18:49;15.20;99.90
54622;DHT22;40521;53.146;6.556;2022-09-30T12:21:21;15.30;99.90
54622;DHT22;40521;53.146;6.556;2022-09-30T12:23:52;15.30;99.90
54622;DHT22;40521;53.146;6.556;2022-09-30T12:26:19;15.30;99.90
54622;DHT22;40521;53.146;6.556;2022-09-30T12:29:02;15.40;99.90
54622;DHT22;40521;53.146;6.556;2022-09-30T12:44:58;15.50;99.90
54622;DHT22;40521;53.146;6.556;2022-09-30T12:47:40;15.40;99.90
54622;DHT22;40521;53.146;6.556;2022-09-30T12:50:12;15.30;99.90
54622;DHT22;40521;53.146;6.556;2022-09-30T12:52:38;15.20;99.90
54622;DHT22;40521;53.146;6.556;2022-09-30T12:55:05;15.10;99.90
54622;DHT22;40521;53.146;6.556;2022-09-30T12:57:32;15.00;99.90
54622;DHT22;40521;53.146;6.556;2022-09-30T13:00:05;14.90;99.90
54622;DHT22;40521;53.146;6.556;2022-09-30T13:02:39;14.90;99.90
54622;DHT22;40521;53.146;6.556;2022-09-30T13:10:31;15.00;99.90
54622;DHT22;40521;53.146;6.556;2022-09-30T13:13:14;15.00;99.90
54622;DHT22;40521;53.146;6.556;2022-09-30T13:15:43;15.00;99.90
54622;DHT22;40521;53.146;6.556;2022-09-30T13:23:24;15.30;99.90
54622;DHT22;40521;53.146;6.556;2022-09-30T13:25:58;15.50;99.90
54622;DHT22;40521;53.146;6.556;2022-09-30T13:28:25;15.60;99.90
54622;DHT22;40521;53.146;6.556;2022-09-30T13:30:59;15.70;99.90
54622;DHT22;40521;53.146;6.556;2022-09-30T13:41:31;16.00;99.90
54622;DHT22;40521;53.146;6.556;2022-09-30T13:44:18;15.80;99.90
54622;DHT22;40521;53.146;6.556;2022-09-30T13:46:47;15.70;99.90
54622;DHT22;40521;53.146;6.556;2022-09-30T13:49:21;15.60;99.90
54622;DHT22;40521;53.146;6.556;2022-09-30T13:51:49;15.50;99.90
54622;DHT22;40521;53.146;6.556;2022-09-30T13:54:25;15.70;99.90
54622;DHT22;40521;53.146;6.556;2022-09-30T13:56:52;16.00;99.90
54622;DHT22;40521;53.146;6.556;2022-09-30T14:02:04;16.30;99.90
54622;DHT22;40521;53.146;6.556;2022-09-30T14:17:51;15.80;99.90
54622;DHT22;40521;53.146;6.556;2022-09-30T14:22:50;16.10;99.90
54622;DHT22;40521;53.146;6.556;2022-09-30T14:25:17;16.10;99.90
54622;DHT22;40521;53.146;6.556;2022-09-30T14:28:03;16.10;99.90
54622;DHT22;40521;53.146;6.556;2022-09-30T14:30:31;16.10;99.90
54622;DHT22;40521;53.146;6.556;2022-09-30T14:33:02;16.00;99.90
54622;DHT22;40521;53.146;6.556;2022-09-30T14:35:33;15.90;99.90
54622;DHT22;40521;53.146;6.556;2022-09-30T14:38:01;15.70;99.90
54622;DHT22;40521;53.146;6.556;2022-09-30T14:40:34;15.70;99.90
54622;DHT22;40521;53.146;6.556;2022-09-30T14:43:11;15.70;99.90
54622;DHT22;40521;53.146;6.556;2022-09-30T14:45:37;15.60;99.90
54622;DHT22;40521;53.146;6.556;2022-09-30T14:48:09;15.60;99.90
54622;DHT22;40521;53.146;6.556;2022-09-30T14:55:52;15.50;99.90
54622;DHT22;40521;53.146;6.556;2022-09-30T14:58:23;15.50;99.90
54622;DHT22;40521;53.146;6.556;2022-09-30T15:03:22;15.40;99.90
54622;DHT22;40521;53.146;6.556;2022-09-30T15:05:48;15.50;99.90
54622;DHT22;40521;53.146;6.556;2022-09-30T15:08:18;15.60;99.90
54622;DHT22;40521;53.146;6.556;2022-09-30T15:10:48;15.50;99.90
54622;DHT22;40521;53.146;6.556;2022-09-30T15:13:14;15.50;99.90
54622;DHT22;40521;53.146;6.556;2022-09-30T15:15:41;15.50;99.90
54622;DHT22;40521;53.146;6.556;2022-09-30T15:18:23;15.40;99.90
54622;DHT22;40521;53.146;6.556;2022-09-30T15:20:50;15.40;99.90
54622;DHT22;40521;53.146;6.556;2022-09-30T15:23:17;15.40;99.90
54622;DHT22;40521;53.146;6.556;2022-09-30T15:25:44;15.30;99.90
54622;DHT22;40521;53.146;6.556;2022-09-30T15:28:10;15.30;99.90
54622;DHT22;40521;53.146;6.556;2022-09-30T15:30:36;15.10;99.90
54622;DHT22;40521;53.146;6.556;2022-09-30T15:33:03;15.00;99.90
54622;DHT22;40521;53.146;6.556;2022-09-30T15:35:29;14.90;99.90
54622;DHT22;40521;53.146;6.556;2022-09-30T15:38:06;14.90;99.90
54622;DHT22;40521;53.146;6.556;2022-09-30T15:40:32;14.80;99.90
54622;DHT22;40521;53.146;6.556;2022-09-30T15:43:10;14.80;99.90
54622;DHT22;40521;53.146;6.556;2022-09-30T15:45:40;14.70;99.90
54622;DHT22;40521;53.146;6.556;2022-09-30T15:48:53;14.70;99.90
54622;DHT22;40521;53.146;6.556;2022-09-30T15:50:55;14.60;99.90
54622;DHT22;40521;53.146;6.556;2022-09-30T15:53:22;14.60;99.90
54622;DHT22;40521;53.146;6.556;2022-09-30T15:55:48;14.50;99.90
54622;DHT22;40521;53.146;6.556;2022-09-30T16:01:12;14.60;99.90
54622;DHT22;40521;53.146;6.556;2022-09-30T16:03:48;14.60;99.90
54622;DHT22;40521;53.146;6.556;2022-09-30T16:06:14;14.50;99.90
54622;DHT22;40521;53.146;6.556;2022-09-30T16:08:42;14.50;99.90
54622;DHT22;40521;53.146;6.556;2022-09-30T16:11:08;14.40;99.90
54622;DHT22;40521;53.146;6.556;2022-09-30T16:13:43;14.40;99.90
54622;DHT22;40521;53.146;6.556;2022-09-30T16:16:14;14.40;99.90
54622;DHT22;40521;53.146;6.556;2022-09-30T16:18:42;14.40;99.90
54622;DHT22;40521;53.146;6.556;2022-09-30T16:21:22;14.30;99.90
54622;DHT22;40521;53.146;6.556;2022-09-30T16:23:51;14.20;99.90
54622;DHT22;40521;53.146;6.556;2022-09-30T16:26:18;14.20;99.90
54622;DHT22;40521;53.146;6.556;2022-09-30T16:28:45;14.10;99.90
54622;DHT22;40521;53.146;6.556;2022-09-30T16:31:10;14.10;99.90
54622;DHT22;40521;53.146;6.556;2022-09-30T16:33:37;14.10;99.90
54622;DHT22;40521;53.146;6.556;2022-09-30T16:36:06;14.00;99.90
54622;DHT22;40521;53.146;6.556;2022-09-30T16:38:32;14.00;99.90
54622;DHT22;40521;53.146;6.556;2022-09-30T16:40:57;14.00;99.90
54622;DHT22;40521;53.146;6.556;2022-09-30T16:43:25;13.90;99.90
54622;DHT22;40521;53.146;6.556;2022-09-30T16:45:51;13.90;99.90
54622;DHT22;40521;53.146;6.556;2022-09-30T16:48:17;13.90;99.90
54622;DHT22;40521;53.146;6.556;2022-09-30T16:50:47;13.80;99.90
54622;DHT22;40521;53.146;6.556;2022-09-30T16:53:13;13.80;99.90
54622;DHT22;40521;53.146;6.556;2022-09-30T16:55:39;13.80;99.90
54622;DHT22;40521;53.146;6.556;2022-09-30T16:58:04;13.70;99.90
54622;DHT22;40521;53.146;6.556;2022-09-30T17:00:31;13.70;99.90
54622;DHT22;40521;53.146;6.556;2022-09-30T17:02:56;13.70;99.90
54622;DHT22;40521;53.146;6.556;2022-09-30T17:05:23;13.60;99.90
54622;DHT22;40521;53.146;6.556;2022-09-30T17:07:53;13.60;99.90
54622;DHT22;40521;53.146;6.556;2022-09-30T17:10:26;13.40;99.90
54622;DHT22;40521;53.146;6.556;2022-09-30T17:12:53;12.60;99.90
54622;DHT22;40521;53.146;6.556;2022-09-30T17:15:19;13.30;99.90
54622;DHT22;40521;53.146;6.556;2022-09-30T17:17:46;13.20;99.90
54622;DHT22;40521;53.146;6.556;2022-09-30T17:20:11;13.10;99.90
54622;DHT22;40521;53.146;6.556;2022-09-30T17:22:37;13.10;99.90
54622;DHT22;40521;53.146;6.556;2022-09-30T17:25:03;13.00;99.90
54622;DHT22;40521;53.146;6.556;2022-09-30T17:27:29;13.00;99.90
54622;DHT22;40521;53.146;6.556;2022-09-30T17:29:54;12.90;99.90
54622;DHT22;40521;53.146;6.556;2022-09-30T17:32:20;12.90;99.90
54622;DHT22;40521;53.146;6.556;2022-09-30T17:34:45;12.90;99.90
54622;DHT22;40521;53.146;6.556;2022-09-30T17:37:11;12.80;99.90
54622;DHT22;40521;53.146;6.556;2022-09-30T17:39:39;12.80;99.90
54622;DHT22;40521;53.146;6.556;2022-09-30T17:42:05;12.70;99.90
54622;DHT22;40521;53.146;6.556;2022-09-30T17:44:49;12.70;99.90
54622;DHT22;40521;53.146;6.556;2022-09-30T17:47:16;12.60;99.90
54622;DHT22;40521;53.146;6.556;2022-09-30T17:49:42;12.60;99.90
54622;DHT22;40521;53.146;6.556;2022-09-30T17:52:07;12.50;99.90
54622;DHT22;40521;53.146;6.556;2022-09-30T17:54:33;12.50;99.90
54622;DHT22;40521;53.146;6.556;2022-09-30T17:57:00;12.40;99.90
54622;DHT22;40521;53.146;6.556;2022-09-30T17:59:25;12.40;99.90
54622;DHT22;40521;53.146;6.556;2022-09-30T18:01:53;12.30;99.90
54622;DHT22;40521;53.146;6.556;2022-09-30T18:04:20;12.30;99.90
54622;DHT22;40521;53.146;6.556;2022-09-30T18:06:46;12.30;99.90
54622;DHT22;40521;53.146;6.556;2022-09-30T18:09:12;12.20;99.90
54622;DHT22;40521;53.146;6.556;2022-09-30T18:11:39;12.10;99.90
54622;DHT22;40521;53.146;6.556;2022-09-30T18:14:04;12.10;99.90
54622;DHT22;40521;53.146;6.556;2022-09-30T18:16:30;12.10;99.90
54622;DHT22;40521;53.146;6.556;2022-09-30T18:18:58;12.10;99.90
54622;DHT22;40521;53.146;6.556;2022-09-30T18:21:24;12.10;99.90
54622;DHT22;40521;53.146;6.556;2022-09-30T18:23:50;12.00;99.90
54622;DHT22;40521;53.146;6.556;2022-09-30T18:26:16;12.00;99.90
54622;DHT22;40521;53.146;6.556;2022-09-30T18:28:42;11.90;99.90
54622;DHT22;40521;53.146;6.556;2022-09-30T18:31:08;11.90;99.90
54622;DHT22;40521;53.146;6.556;2022-09-30T18:33:34;11.90;99.90
54622;DHT22;40521;53.146;6.556;2022-09-30T18:36:00;11.80;99.90
54622;DHT22;40521;53.146;6.556;2022-09-30T18:38:26;11.80;99.90
54622;DHT22;40521;53.146;6.556;2022-09-30T18:40:52;11.80;99.90
54622;DHT22;40521;53.146;6.556;2022-09-30T18:43:19;11.70;99.90
54622;DHT22;40521;53.146;6.556;2022-09-30T18:45:51;11.70;99.90
54622;DHT22;40521;53.146;6.556;2022-09-30T18:48:16;11.70;99.90
54622;DHT22;40521;53.146;6.556;2022-09-30T18:50:42;11.70;99.90
54622;DHT22;40521;53.146;6.556;2022-09-30T18:53:09;11.70;99.90
54622;DHT22;40521;53.146;6.556;2022-09-30T18:55:37;11.60;99.90
54622;DHT22;40521;53.146;6.556;2022-09-30T18:58:02;11.60;99.90
54622;DHT22;40521;53.146;6.556;2022-09-30T19:00:28;11.60;99.90
54622;DHT22;40521;53.146;6.556;2022-09-30T19:02:54;11.50;99.90
54622;DHT22;40521;53.146;6.556;2022-09-30T19:05:20;11.50;99.90
54622;DHT22;40521;53.146;6.556;2022-09-30T19:07:46;11.50;99.90
54622;DHT22;40521;53.146;6.556;2022-09-30T19:10:12;11.50;99.90
54622;DHT22;40521;53.146;6.556;2022-09-30T19:12:38;11.50;99.90
54622;DHT22;40521;53.146;6.556;2022-09-30T19:15:05;11.50;99.90
54622;DHT22;40521;53.146;6.556;2022-09-30T19:17:31;11.50;99.90
54622;DHT22;40521;53.146;6.556;2022-09-30T19:19:57;11.50;99.90
54622;DHT22;40521;53.146;6.556;2022-09-30T19:22:25;11.50;99.90
54622;DHT22;40521;53.146;6.556;2022-09-30T19:24:51;11.50;99.90
54622;DHT22;40521;53.146;6.556;2022-09-30T19:27:16;11.50;99.90
54622;DHT22;40521;53.146;6.556;2022-09-30T19:29:42;11.50;99.90
54622;DHT22;40521;53.146;6.556;2022-09-30T19:32:08;11.60;99.90
54622;DHT22;40521;53.146;6.556;2022-09-30T19:34:35;11.60;99.90
54622;DHT22;40521;53.146;6.556;2022-09-30T19:37:01;11.60;99.90
54622;DHT22;40521;53.146;6.556;2022-09-30T19:39:27;11.60;99.90
54622;DHT22;40521;53.146;6.556;2022-09-30T19:41:52;11.60;99.90
54622;DHT22;40521;53.146;6.556;2022-09-30T19:44:18;11.70;99.90
54622;DHT22;40521;53.146;6.556;2022-09-30T19:46:49;11.70;99.90
54622;DHT22;40521;53.146;6.556;2022-09-30T19:49:15;11.70;99.90
54622;DHT22;40521;53.146;6.556;2022-09-30T19:51:41;11.70;99.90
54622;DHT22;40521;53.146;6.556;2022-09-30T19:54:06;11.70;99.90
54622;DHT22;40521;53.146;6.556;2022-09-30T19:56:32;11.70;99.90
54622;DHT22;40521;53.146;6.556;2022-09-30T19:58:58;11.70;99.90
54622;DHT22;40521;53.146;6.556;2022-09-30T20:01:25;11.80;99.90
54622;DHT22;40521;53.146;6.556;2022-09-30T20:03:54;11.80;99.90
54622;DHT22;40521;53.146;6.556;2022-09-30T20:06:20;11.70;99.90
54622;DHT22;40521;53.146;6.556;2022-09-30T20:08:50;11.80;99.90
54622;DHT22;40521;53.146;6.556;2022-09-30T20:11:17;11.80;99.90
54622;DHT22;40521;53.146;6.556;2022-09-30T20:13:44;11.80;99.90
54622;DHT22;40521;53.146;6.556;2022-09-30T20:16:11;11.80;99.90
54622;DHT22;40521;53.146;6.556;2022-09-30T20:18:37;11.80;99.90
54622;DHT22;40521;53.146;6.556;2022-09-30T20:21:10;11.80;99.90
54622;DHT22;40521;53.146;6.556;2022-09-30T20:23:36;11.90;99.90
54622;DHT22;40521;53.146;6.556;2022-09-30T20:26:07;11.90;99.90
54622;DHT22;40521;53.146;6.556;2022-09-30T20:28:33;11.90;99.90
54622;DHT22;40521;53.146;6.556;2022-09-30T20:31:06;11.90;99.90
54622;DHT22;40521;53.146;6.556;2022-09-30T20:33:32;11.90;99.90
54622;DHT22;40521;53.146;6.556;2022-09-30T20:35:59;12.00;99.90
54622;DHT22;40521;53.146;6.556;2022-09-30T20:38:25;12.00;99.90
54622;DHT22;40521;53.146;6.556;2022-09-30T20:40:54;11.90;99.90
54622;DHT22;40521;53.146;6.556;2022-09-30T20:43:20;12.00;99.90
54622;DHT22;40521;53.146;6.556;2022-09-30T20:45:51;12.00;99.90
54622;DHT22;40521;53.146;6.556;2022-09-30T20:48:17;12.00;99.90
54622;DHT22;40521;53.146;6.556;2022-09-30T20:50:42;12.10;99.90
54622;DHT22;40521;53.146;6.556;2022-09-30T20:53:11;12.10;99.90
54622;DHT22;40521;53.146;6.556;2022-09-30T20:55:37;12.10;99.90
54622;DHT22;40521;53.146;6.556;2022-09-30T20:58:04;12.10;99.90